sensor_id;sensor_type;location;lat;lon;timestamp;temperature;humidity
26336;DHT22;14047;50.936;4.654;2022-07-01T00:02:11;13.60;99.90
26336;DHT22;14047;50.936;4.654;2022-07-01T00:04:36;13.50;99.90
26336;DHT22;14047;50.936;4.654;2022-07-01T00:07:02;13.50;99.90
26336;DHT22;14047;50.936;4.654;2022-07-01T00:09:28;13.50;99.90
26336;DHT22;14047;50.936;4.654;2022-07-01T00:11:54;13.50;99.90
26336;DHT22;14047;50.936;4.654;2022-07-01T00:14:20;13.60;99.90
26336;DHT22;14047;50.936;4.654;2022-07-01T00:16:48;13.60;99.90
26336;DHT22;14047;50.936;4.654;2022-07-01T00:19:14;13.60;99.90
26336;DHT22;14047;50.936;4.654;2022-07-01T00:21:39;13.60;99.90
26336;DHT22;14047;50.936;4.654;2022-07-01T00:24:05;13.60;99.90
26336;DHT22;14047;50.936;4.654;2022-07-01T00:26:32;13.60;99.90
26336;DHT22;14047;50.936;4.654;2022-07-01T00:28:57;13.60;99.90
26336;DHT22;14047;50.936;4.654;2022-07-01T00:31:23;13.70;99.90
26336;DHT22;14047;50.936;4.654;2022-07-01T00:33:48;13.60;99.90
26336;DHT22;14047;50.936;4.654;2022-07-01T00:36:14;13.60;99.90
26336;DHT22;14047;50.936;4.654;2022-07-01T00:38:40;13.60;99.90
26336;DHT22;14047;50.936;4.654;2022-07-01T00:41:05;13.60;99.90
26336;DHT22;14047;50.936;4.654;2022-07-01T00:43:35;13.60;99.90
26336;DHT22;14047;50.936;4.654;2022-07-01T00:46:02;13.60;99.90
26336;DHT22;14047;50.936;4.654;2022-07-01T00:48:27;13.60;99.90
26336;DHT22;14047;50.936;4.654;2022-07-01T00:50:53;13.60;99.90
26336;DHT22;14047;50.936;4.654;2022-07-01T00:53:19;13.50;99.90
26336;DHT22;14047;50.936;4.654;2022-07-01T00:55:45;13.50;99.90
26336;DHT22;14047;50.936;4.654;2022-07-01T00:58:11;13.50;99.90
26336;DHT22;14047;50.936;4.654;2022-07-01T01:00:37;13.50;99.90
26336;DHT22;14047;50.936;4.654;2022-07-01T01:03:07;13.40;99.90
26336;DHT22;14047;50.936;4.654;2022-07-01T01:05:36;13.40;99.90
26336;DHT22;14047;50.936;4.654;2022-07-01T01:08:02;13.40;99.90
26336;DHT22;14047;50.936;4.654;2022-07-01T01:10:28;13.40;99.90
26336;DHT22;14047;50.936;4.654;2022-07-01T01:12:56;13.40;99.90
26336;DHT22;14047;50.936;4.654;2022-07-01T01:15:21;13.40;99.90
26336;DHT22;14047;50.936;4.654;2022-07-01T01:17:47;13.50;99.90
26336;DHT22;14047;50.936;4.654;2022-07-01T01:20:15;13.40;99.90
26336;DHT22;14047;50.936;4.654;2022-07-01T01:22:41;13.50;99.90
26336;DHT22;14047;50.936;4.654;2022-07-01T01:25:07;13.50;99.90
26336;DHT22;14047;50.936;4.654;2022-07-01T01:27:33;13.60;99.90
26336;DHT22;14047;50.936;4.654;2022-07-01T01:29:58;13.60;99.90
26336;DHT22;14047;50.936;4.654;2022-07-01T01:32:24;13.70;99.90
26336;DHT22;14047;50.936;4.654;2022-07-01T01:34:50;13.60;99.90
26336;DHT22;14047;50.936;4.654;2022-07-01T01:37:15;13.50;99.90
26336;DHT22;14047;50.936;4.654;2022-07-01T01:39:41;13.60;99.90
26336;DHT22;14047;50.936;4.654;2022-07-01T01:42:07;13.40;99.90
26336;DHT22;14047;50.936;4.654;2022-07-01T01:44:33;13.30;99.90
26336;DHT22;14047;50.936;4.654;2022-07-01T01:46:59;13.30;99.90
26336;DHT22;14047;50.936;4.654;2022-07-01T01:49:24;13.40;99.90
26336;DHT22;14047;50.936;4.654;2022-07-01T01:51:50;13.30;99.90
26336;DHT22;14047;50.936;4.654;2022-07-01T01:54:16;13.30;99.90
26336;DHT22;14047;50.936;4.654;2022-07-01T01:56:41;13.10;99.90
26336;DHT22;14047;50.936;4.654;2022-07-01T01:59:07;13.10;99.90
26336;DHT22;14047;50.936;4.654;2022-07-01T02:01:33;13.00;99.90
26336;DHT22;14047;50.936;4.654;2022-07-01T02:03:59;13.00;99.90
26336;DHT22;14047;50.936;4.654;2022-07-01T02:06:25;12.80;99.90
26336;DHT22;14047;50.936;4.654;2022-07-01T02:08:51;12.80;99.90
26336;DHT22;14047;50.936;4.654;2022-07-01T02:11:16;12.80;99.90
26336;DHT22;14047;50.936;4.654;2022-07-01T02:13:42;12.70;99.90
26336;DHT22;14047;50.936;4.654;2022-07-01T02:16:10;12.70;99.90
26336;DHT22;14047;50.936;4.654;2022-07-01T02:18:36;12.80;99.90
26336;DHT22;14047;50.936;4.654;2022-07-01T02:21:01;12.90;99.90
26336;DHT22;14047;50.936;4.654;2022-07-01T02:23:27;13.00;99.90
26336;DHT22;14047;50.936;4.654;2022-07-01T02:25:55;13.10;99.90
26336;DHT22;14047;50.936;4.654;2022-07-01T02:28:20;13.20;99.90
26336;DHT22;14047;50.936;4.654;2022-07-01T02:30:46;13.20;99.90
26336;DHT22;14047;50.936;4.654;2022-07-01T02:33:12;13.30;99.90
26336;DHT22;14047;50.936;4.654;2022-07-01T02:35:39;13.30;99.90
26336;DHT22;14047;50.936;4.654;2022-07-01T02:38:06;13.40;99.90
26336;DHT22;14047;50.936;4.654;2022-07-01T02:40:33;13.50;99.90
26336;DHT22;14047;50.936;4.654;2022-07-01T02:42:59;13.60;99.90
26336;DHT22;14047;50.936;4.654;2022-07-01T02:45:25;13.70;99.90
26336;DHT22;14047;50.936;4.654;2022-07-01T02:47:51;13.70;99.90
26336;DHT22;14047;50.936;4.654;2022-07-01T02:50:18;13.80;99.90
26336;DHT22;14047;50.936;4.654;2022-07-01T02:52:45;13.80;99.90
26336;DHT22;14047;50.936;4.654;2022-07-01T02:55:12;13.80;99.90
26336;DHT22;14047;50.936;4.654;2022-07-01T02:57:40;13.90;99.90
26336;DHT22;14047;50.936;4.654;2022-07-01T03:00:09;13.90;99.90
26336;DHT22;14047;50.936;4.654;2022-07-01T03:02:35;13.90;99.90
26336;DHT22;14047;50.936;4.654;2022-07-01T03:05:02;13.90;99.90
26336;DHT22;14047;50.936;4.654;2022-07-01T03:07:28;13.90;99.90
26336;DHT22;14047;50.936;4.654;2022-07-01T03:09:54;13.90;99.90
26336;DHT22;14047;50.936;4.654;2022-07-01T03:12:20;14.00;99.90
26336;DHT22;14047;50.936;4.654;2022-07-01T03:14:58;14.00;99.90
26336;DHT22;14047;50.936;4.654;2022-07-01T03:17:25;14.00;99.90
26336;DHT22;14047;50.936;4.654;2022-07-01T03:19:51;14.10;99.90
26336;DHT22;14047;50.936;4.654;2022-07-01T03:22:18;14.10;99.90
26336;DHT22;14047;50.936;4.654;2022-07-01T03:24:44;14.20;99.90
26336;DHT22;14047;50.936;4.654;2022-07-01T03:27:09;14.10;99.90
26336;DHT22;14047;50.936;4.654;2022-07-01T03:29:35;14.10;99.90
26336;DHT22;14047;50.936;4.654;2022-07-01T03:32:01;14.10;99.90
26336;DHT22;14047;50.936;4.654;2022-07-01T03:34:27;14.20;99.90
26336;DHT22;14047;50.936;4.654;2022-07-01T03:36:53;14.20;99.90
26336;DHT22;14047;50.936;4.654;2022-07-01T03:39:19;14.20;99.90
26336;DHT22;14047;50.936;4.654;2022-07-01T03:41:44;14.00;99.90
26336;DHT22;14047;50.936;4.654;2022-07-01T03:44:10;14.10;99.90
26336;DHT22;14047;50.936;4.654;2022-07-01T03:46:36;14.10;99.90
26336;DHT22;14047;50.936;4.654;2022-07-01T03:49:02;14.20;99.90
26336;DHT22;14047;50.936;4.654;2022-07-01T03:51:29;14.20;99.90
26336;DHT22;14047;50.936;4.654;2022-07-01T03:53:55;14.20;99.90
26336;DHT22;14047;50.936;4.654;2022-07-01T03:56:39;14.10;99.90
26336;DHT22;14047;50.936;4.654;2022-07-01T03:59:05;14.00;99.90
26336;DHT22;14047;50.936;4.654;2022-07-01T04:01:30;14.00;99.90
26336;DHT22;14047;50.936;4.654;2022-07-01T04:03:57;14.00;99.90
26336;DHT22;14047;50.936;4.654;2022-07-01T04:06:23;14.00;99.90
26336;DHT22;14047;50.936;4.654;2022-07-01T04:08:49;14.10;99.90
26336;DHT22;14047;50.936;4.654;2022-07-01T04:11:16;14.10;99.90
26336;DHT22;14047;50.936;4.654;2022-07-01T04:13:41;14.20;99.90
26336;DHT22;14047;50.936;4.654;2022-07-01T04:16:16;14.30;99.90
26336;DHT22;14047;50.936;4.654;2022-07-01T04:18:41;14.40;99.90
26336;DHT22;14047;50.936;4.654;2022-07-01T04:21:08;14.30;99.90
26336;DHT22;14047;50.936;4.654;2022-07-01T04:23:52;14.30;99.90
26336;DHT22;14047;50.936;4.654;2022-07-01T04:26:17;14.30;99.90
26336;DHT22;14047;50.936;4.654;2022-07-01T04:28:43;14.40;99.90
26336;DHT22;14047;50.936;4.654;2022-07-01T04:31:09;14.50;99.90
26336;DHT22;14047;50.936;4.654;2022-07-01T04:33:34;14.50;99.90
26336;DHT22;14047;50.936;4.654;2022-07-01T04:36:00;14.50;99.90
26336;DHT22;14047;50.936;4.654;2022-07-01T04:38:26;14.50;99.90
26336;DHT22;14047;50.936;4.654;2022-07-01T04:40:51;14.40;99.90
26336;DHT22;14047;50.936;4.654;2022-07-01T04:43:36;14.30;99.90
26336;DHT22;14047;50.936;4.654;2022-07-01T04:46:01;14.00;99.90
26336;DHT22;14047;50.936;4.654;2022-07-01T04:48:27;14.00;99.90
26336;DHT22;14047;50.936;4.654;2022-07-01T04:50:53;14.10;99.90
26336;DHT22;14047;50.936;4.654;2022-07-01T04:53:18;14.20;99.90
26336;DHT22;14047;50.936;4.654;2022-07-01T04:55:44;14.20;99.90
26336;DHT22;14047;50.936;4.654;2022-07-01T04:58:10;14.30;99.90
26336;DHT22;14047;50.936;4.654;2022-07-01T05:00:35;14.30;99.90
26336;DHT22;14047;50.936;4.654;2022-07-01T05:03:01;14.40;99.90
26336;DHT22;14047;50.936;4.654;2022-07-01T05:05:26;14.40;99.90
26336;DHT22;14047;50.936;4.654;2022-07-01T05:07:52;14.40;99.90
26336;DHT22;14047;50.936;4.654;2022-07-01T05:10:18;14.40;99.90
26336;DHT22;14047;50.936;4.654;2022-07-01T05:12:43;14.50;99.90
26336;DHT22;14047;50.936;4.654;2022-07-01T05:15:09;14.70;99.90
26336;DHT22;14047;50.936;4.654;2022-07-01T05:17:35;14.80;99.90
26336;DHT22;14047;50.936;4.654;2022-07-01T05:20:19;14.70;99.90
26336;DHT22;14047;50.936;4.654;2022-07-01T05:23:03;14.50;99.90
26336;DHT22;14047;50.936;4.654;2022-07-01T05:25:29;14.40;99.90
26336;DHT22;14047;50.936;4.654;2022-07-01T05:27:54;14.40;99.90
26336;DHT22;14047;50.936;4.654;2022-07-01T05:30:21;14.30;99.90
26336;DHT22;14047;50.936;4.654;2022-07-01T05:32:47;14.50;99.90
26336;DHT22;14047;50.936;4.654;2022-07-01T05:35:13;14.60;99.90
26336;DHT22;14047;50.936;4.654;2022-07-01T05:37:40;14.60;99.90
26336;DHT22;14047;50.936;4.654;2022-07-01T05:40:06;14.80;99.90
26336;DHT22;14047;50.936;4.654;2022-07-01T05:42:32;14.70;99.90
26336;DHT22;14047;50.936;4.654;2022-07-01T05:44:58;14.40;99.90
26336;DHT22;14047;50.936;4.654;2022-07-01T05:47:23;14.20;99.90
26336;DHT22;14047;50.936;4.654;2022-07-01T05:49:49;14.00;99.90
26336;DHT22;14047;50.936;4.654;2022-07-01T05:52:14;14.00;99.90
26336;DHT22;14047;50.936;4.654;2022-07-01T05:54:40;13.90;99.90
26336;DHT22;14047;50.936;4.654;2022-07-01T05:57:06;14.00;99.90
26336;DHT22;14047;50.936;4.654;2022-07-01T05:59:31;14.10;99.90
26336;DHT22;14047;50.936;4.654;2022-07-01T06:01:57;14.30;99.90
26336;DHT22;14047;50.936;4.654;2022-07-01T06:04:22;14.50;99.90
26336;DHT22;14047;50.936;4.654;2022-07-01T06:06:48;14.50;99.90
26336;DHT22;14047;50.936;4.654;2022-07-01T06:09:14;14.50;99.90
26336;DHT22;14047;50.936;4.654;2022-07-01T06:11:39;14.50;99.90
26336;DHT22;14047;50.936;4.654;2022-07-01T06:14:05;14.70;99.90
26336;DHT22;14047;50.936;4.654;2022-07-01T06:16:31;14.70;99.90
26336;DHT22;14047;50.936;4.654;2022-07-01T06:18:56;14.80;99.90
26336;DHT22;14047;50.936;4.654;2022-07-01T06:21:22;14.70;99.90
26336;DHT22;14047;50.936;4.654;2022-07-01T06:23:47;14.70;99.90
26336;DHT22;14047;50.936;4.654;2022-07-01T06:26:13;14.70;99.90
26336;DHT22;14047;50.936;4.654;2022-07-01T06:28:39;14.60;99.90
26336;DHT22;14047;50.936;4.654;2022-07-01T06:31:04;14.80;99.90
26336;DHT22;14047;50.936;4.654;2022-07-01T06:33:30;14.90;99.90
26336;DHT22;14047;50.936;4.654;2022-07-01T06:35:56;14.90;99.90
26336;DHT22;14047;50.936;4.654;2022-07-01T06:38:23;15.10;99.90
26336;DHT22;14047;50.936;4.654;2022-07-01T06:40:49;15.10;99.90
26336;DHT22;14047;50.936;4.654;2022-07-01T06:43:34;15.20;99.90
26336;DHT22;14047;50.936;4.654;2022-07-01T06:46:00;15.10;99.90
26336;DHT22;14047;50.936;4.654;2022-07-01T06:48:26;15.10;99.90
26336;DHT22;14047;50.936;4.654;2022-07-01T06:50:52;15.30;99.90
26336;DHT22;14047;50.936;4.654;2022-07-01T06:53:17;15.30;99.90
26336;DHT22;14047;50.936;4.654;2022-07-01T06:55:43;15.30;99.90
26336;DHT22;14047;50.936;4.654;2022-07-01T06:58:09;15.30;99.90
26336;DHT22;14047;50.936;4.654;2022-07-01T07:00:35;15.40;99.90
26336;DHT22;14047;50.936;4.654;2022-07-01T07:03:01;15.30;99.90
26336;DHT22;14047;50.936;4.654;2022-07-01T07:05:27;15.30;99.90
26336;DHT22;14047;50.936;4.654;2022-07-01T07:07:55;15.50;99.90
26336;DHT22;14047;50.936;4.654;2022-07-01T07:10:21;15.40;99.90
26336;DHT22;14047;50.936;4.654;2022-07-01T07:12:46;15.50;99.90
26336;DHT22;14047;50.936;4.654;2022-07-01T07:15:12;15.60;99.90
26336;DHT22;14047;50.936;4.654;2022-07-01T07:17:38;15.60;99.90
26336;DHT22;14047;50.936;4.654;2022-07-01T07:20:04;15.80;99.90
26336;DHT22;14047;50.936;4.654;2022-07-01T07:22:29;16.10;99.90
26336;DHT22;14047;50.936;4.654;2022-07-01T07:24:55;16.10;99.90
26336;DHT22;14047;50.936;4.654;2022-07-01T07:27:21;16.00;99.90
26336;DHT22;14047;50.936;4.654;2022-07-01T07:29:46;16.10;99.90
26336;DHT22;14047;50.936;4.654;2022-07-01T07:32:12;16.20;99.90
26336;DHT22;14047;50.936;4.654;2022-07-01T07:34:38;16.20;99.90
26336;DHT22;14047;50.936;4.654;2022-07-01T07:37:04;16.20;99.90
26336;DHT22;14047;50.936;4.654;2022-07-01T07:39:30;16.20;99.90
26336;DHT22;14047;50.936;4.654;2022-07-01T07:41:55;16.30;99.90
26336;DHT22;14047;50.936;4.654;2022-07-01T07:44:21;16.30;99.90
26336;DHT22;14047;50.936;4.654;2022-07-01T07:46:47;16.40;99.90
26336;DHT22;14047;50.936;4.654;2022-07-01T07:49:12;16.40;99.90
26336;DHT22;14047;50.936;4.654;2022-07-01T07:51:38;16.40;99.90
26336;DHT22;14047;50.936;4.654;2022-07-01T07:54:04;16.40;99.90
26336;DHT22;14047;50.936;4.654;2022-07-01T07:56:30;16.50;99.90
26336;DHT22;14047;50.936;4.654;2022-07-01T07:58:56;16.60;99.90
26336;DHT22;14047;50.936;4.654;2022-07-01T08:01:21;16.70;99.90
26336;DHT22;14047;50.936;4.654;2022-07-01T08:03:47;16.60;99.90
26336;DHT22;14047;50.936;4.654;2022-07-01T08:06:13;16.70;99.90
26336;DHT22;14047;50.936;4.654;2022-07-01T08:08:38;16.90;99.90
26336;DHT22;14047;50.936;4.654;2022-07-01T08:11:04;17.00;99.90
26336;DHT22;14047;50.936;4.654;2022-07-01T08:13:30;16.80;99.90
26336;DHT22;14047;50.936;4.654;2022-07-01T08:15:56;16.90;99.90
26336;DHT22;14047;50.936;4.654;2022-07-01T08:18:21;17.10;99.90
26336;DHT22;14047;50.936;4.654;2022-07-01T08:20:47;17.20;99.90
26336;DHT22;14047;50.936;4.654;2022-07-01T08:23:13;17.40;99.90
26336;DHT22;14047;50.936;4.654;2022-07-01T08:25:39;17.60;99.90
26336;DHT22;14047;50.936;4.654;2022-07-01T08:28:05;17.70;99.90
26336;DHT22;14047;50.936;4.654;2022-07-01T08:30:31;17.90;99.90
26336;DHT22;14047;50.936;4.654;2022-07-01T08:32:57;18.20;99.90
26336;DHT22;14047;50.936;4.654;2022-07-01T08:35:22;18.30;99.90
26336;DHT22;14047;50.936;4.654;2022-07-01T08:37:49;18.30;99.90
26336;DHT22;14047;50.936;4.654;2022-07-01T08:40:14;18.10;99.90
26336;DHT22;14047;50.936;4.654;2022-07-01T08:42:40;18.20;99.90
26336;DHT22;14047;50.936;4.654;2022-07-01T08:45:08;18.20;99.90
26336;DHT22;14047;50.936;4.654;2022-07-01T08:47:34;18.40;99.90
26336;DHT22;14047;50.936;4.654;2022-07-01T08:50:00;18.40;99.90
26336;DHT22;14047;50.936;4.654;2022-07-01T08:52:27;18.50;99.90
26336;DHT22;14047;50.936;4.654;2022-07-01T08:54:54;18.50;99.90
26336;DHT22;14047;50.936;4.654;2022-07-01T08:57:23;18.40;99.90
26336;DHT22;14047;50.936;4.654;2022-07-01T09:00:21;18.50;99.90
26336;DHT22;14047;50.936;4.654;2022-07-01T09:05:21;18.60;99.90
26336;DHT22;14047;50.936;4.654;2022-07-01T09:07:47;18.60;99.90
26336;DHT22;14047;50.936;4.654;2022-07-01T09:10:18;18.60;99.90
26336;DHT22;14047;50.936;4.654;2022-07-01T09:12:47;18.40;99.90
26336;DHT22;14047;50.936;4.654;2022-07-01T09:15:27;18.50;99.90
26336;DHT22;14047;50.936;4.654;2022-07-01T09:17:55;18.50;99.90
26336;DHT22;14047;50.936;4.654;2022-07-01T09:20:27;18.70;99.90
26336;DHT22;14047;50.936;4.654;2022-07-01T09:22:57;19.00;99.90
26336;DHT22;14047;50.936;4.654;2022-07-01T09:25:31;18.90;99.90
26336;DHT22;14047;50.936;4.654;2022-07-01T09:28:08;18.80;99.90
26336;DHT22;14047;50.936;4.654;2022-07-01T09:30:35;18.70;99.90
26336;DHT22;14047;50.936;4.654;2022-07-01T09:33:15;18.70;99.90
26336;DHT22;14047;50.936;4.654;2022-07-01T09:35:43;18.70;99.90
26336;DHT22;14047;50.936;4.654;2022-07-01T09:38:13;19.00;99.90
26336;DHT22;14047;50.936;4.654;2022-07-01T09:46:03;19.70;99.90
26336;DHT22;14047;50.936;4.654;2022-07-01T09:50:57;20.00;99.90
26336;DHT22;14047;50.936;4.654;2022-07-01T09:53:23;20.10;99.90
26336;DHT22;14047;50.936;4.654;2022-07-01T09:55:49;20.30;99.90
26336;DHT22;14047;50.936;4.654;2022-07-01T09:58:15;20.10;99.90
26336;DHT22;14047;50.936;4.654;2022-07-01T10:00:41;20.40;99.90
26336;DHT22;14047;50.936;4.654;2022-07-01T10:03:07;20.50;99.90
26336;DHT22;14047;50.936;4.654;2022-07-01T10:05:49;20.20;99.90
26336;DHT22;14047;50.936;4.654;2022-07-01T10:08:33;19.50;99.90
26336;DHT22;14047;50.936;4.654;2022-07-01T10:14:03;19.40;99.90
26336;DHT22;14047;50.936;4.654;2022-07-01T10:16:34;19.50;99.90
26336;DHT22;14047;50.936;4.654;2022-07-01T10:19:27;19.70;99.90
26336;DHT22;14047;50.936;4.654;2022-07-01T10:21:53;19.90;99.90
26336;DHT22;14047;50.936;4.654;2022-07-01T10:24:24;20.20;99.90
26336;DHT22;14047;50.936;4.654;2022-07-01T10:26:51;20.70;99.90
26336;DHT22;14047;50.936;4.654;2022-07-01T10:29:46;20.70;99.90
26336;DHT22;14047;50.936;4.654;2022-07-01T10:34:46;20.20;99.90
26336;DHT22;14047;50.936;4.654;2022-07-01T10:37:12;19.70;99.90
26336;DHT22;14047;50.936;4.654;2022-07-01T10:40:04;19.60;99.90
26336;DHT22;14047;50.936;4.654;2022-07-01T10:42:58;19.60;99.90
26336;DHT22;14047;50.936;4.654;2022-07-01T10:45:24;19.40;99.90
26336;DHT22;14047;50.936;4.654;2022-07-01T10:48:25;19.50;99.90
26336;DHT22;14047;50.936;4.654;2022-07-01T10:50:52;19.70;99.90
26336;DHT22;14047;50.936;4.654;2022-07-01T10:53:19;20.10;99.90
26336;DHT22;14047;50.936;4.654;2022-07-01T10:58:12;20.30;99.90
26336;DHT22;14047;50.936;4.654;2022-07-01T11:00:42;20.60;99.90
26336;DHT22;14047;50.936;4.654;2022-07-01T11:03:18;20.80;99.90
26336;DHT22;14047;50.936;4.654;2022-07-01T11:05:45;21.10;99.90
26336;DHT22;14047;50.936;4.654;2022-07-01T11:08:11;21.50;99.90
26336;DHT22;14047;50.936;4.654;2022-07-01T11:10:40;22.00;99.90
26336;DHT22;14047;50.936;4.654;2022-07-01T11:13:06;22.00;99.90
26336;DHT22;14047;50.936;4.654;2022-07-01T11:15:32;22.20;99.90
26336;DHT22;14047;50.936;4.654;2022-07-01T11:17:59;22.20;99.90
26336;DHT22;14047;50.936;4.654;2022-07-01T11:20:27;22.40;99.90
26336;DHT22;14047;50.936;4.654;2022-07-01T11:22:54;22.60;99.90
26336;DHT22;14047;50.936;4.654;2022-07-01T11:25:20;22.70;99.90
26336;DHT22;14047;50.936;4.654;2022-07-01T11:27:48;22.90;99.90
26336;DHT22;14047;50.936;4.654;2022-07-01T11:30:14;23.20;99.90
26336;DHT22;14047;50.936;4.654;2022-07-01T11:32:43;23.10;99.90
26336;DHT22;14047;50.936;4.654;2022-07-01T11:35:24;23.10;99.90
26336;DHT22;14047;50.936;4.654;2022-07-01T11:38:15;22.90;99.90
26336;DHT22;14047;50.936;4.654;2022-07-01T11:41:02;23.30;99.90
26336;DHT22;14047;50.936;4.654;2022-07-01T11:43:35;23.30;99.90
26336;DHT22;14047;50.936;4.654;2022-07-01T11:46:03;22.90;99.90
26336;DHT22;14047;50.936;4.654;2022-07-01T11:48:40;22.40;99.90
26336;DHT22;14047;50.936;4.654;2022-07-01T11:51:09;21.80;99.90
26336;DHT22;14047;50.936;4.654;2022-07-01T11:53:35;22.10;99.90
26336;DHT22;14047;50.936;4.654;2022-07-01T11:56:02;22.20;99.90
26336;DHT22;14047;50.936;4.654;2022-07-01T11:58:47;22.40;99.90
26336;DHT22;14047;50.936;4.654;2022-07-01T12:01:36;22.10;99.90
26336;DHT22;14047;50.936;4.654;2022-07-01T12:04:07;22.00;99.90
26336;DHT22;14047;50.936;4.654;2022-07-01T12:06:34;21.90;99.90
26336;DHT22;14047;50.936;4.654;2022-07-01T12:09:02;22.00;99.90
26336;DHT22;14047;50.936;4.654;2022-07-01T12:11:28;22.10;99.90
26336;DHT22;14047;50.936;4.654;2022-07-01T12:13:55;22.30;99.90
26336;DHT22;14047;50.936;4.654;2022-07-01T12:16:24;22.10;99.90
26336;DHT22;14047;50.936;4.654;2022-07-01T12:18:59;22.30;99.90
26336;DHT22;14047;50.936;4.654;2022-07-01T12:21:29;22.10;99.90
26336;DHT22;14047;50.936;4.654;2022-07-01T12:24:13;21.90;99.90
26336;DHT22;14047;50.936;4.654;2022-07-01T12:27:01;21.90;99.90
26336;DHT22;14047;50.936;4.654;2022-07-01T12:29:53;22.10;99.90
26336;DHT22;14047;50.936;4.654;2022-07-01T12:32:27;22.40;99.90
26336;DHT22;14047;50.936;4.654;2022-07-01T12:34:57;22.60;99.90
26336;DHT22;14047;50.936;4.654;2022-07-01T12:37:28;22.30;99.90
26336;DHT22;14047;50.936;4.654;2022-07-01T12:40:07;22.20;99.90
26336;DHT22;14047;50.936;4.654;2022-07-01T12:42:38;22.20;99.90
26336;DHT22;14047;50.936;4.654;2022-07-01T12:45:09;22.50;99.90
26336;DHT22;14047;50.936;4.654;2022-07-01T12:47:42;22.60;99.90
26336;DHT22;14047;50.936;4.654;2022-07-01T12:50:27;22.70;99.90
26336;DHT22;14047;50.936;4.654;2022-07-01T12:53:10;22.80;99.90
26336;DHT22;14047;50.936;4.654;2022-07-01T12:55:41;23.00;99.90
26336;DHT22;14047;50.936;4.654;2022-07-01T12:58:12;23.30;99.90
26336;DHT22;14047;50.936;4.654;2022-07-01T13:00:40;23.30;99.90
26336;DHT22;14047;50.936;4.654;2022-07-01T13:03:06;23.00;99.90
26336;DHT22;14047;50.936;4.654;2022-07-01T13:05:36;23.10;99.90
26336;DHT22;14047;50.936;4.654;2022-07-01T13:08:04;23.10;99.90
26336;DHT22;14047;50.936;4.654;2022-07-01T13:10:30;23.20;99.90
26336;DHT22;14047;50.936;4.654;2022-07-01T13:12:55;23.30;99.90
26336;DHT22;14047;50.936;4.654;2022-07-01T13:15:22;23.80;99.90
26336;DHT22;14047;50.936;4.654;2022-07-01T13:17:48;24.40;99.90
26336;DHT22;14047;50.936;4.654;2022-07-01T13:20:15;24.70;99.90
26336;DHT22;14047;50.936;4.654;2022-07-01T13:22:42;24.90;99.90
26336;DHT22;14047;50.936;4.654;2022-07-01T13:25:08;25.00;99.90
26336;DHT22;14047;50.936;4.654;2022-07-01T13:27:35;25.10;99.90
26336;DHT22;14047;50.936;4.654;2022-07-01T13:30:01;24.70;99.90
26336;DHT22;14047;50.936;4.654;2022-07-01T13:32:29;23.90;99.90
26336;DHT22;14047;50.936;4.654;2022-07-01T13:34:54;23.70;99.90
26336;DHT22;14047;50.936;4.654;2022-07-01T13:37:20;23.60;99.90
26336;DHT22;14047;50.936;4.654;2022-07-01T13:39:46;23.50;99.90
26336;DHT22;14047;50.936;4.654;2022-07-01T13:42:12;23.70;99.90
26336;DHT22;14047;50.936;4.654;2022-07-01T13:44:37;23.70;99.90
26336;DHT22;14047;50.936;4.654;2022-07-01T13:47:03;23.40;99.90
26336;DHT22;14047;50.936;4.654;2022-07-01T13:49:31;23.60;99.90
26336;DHT22;14047;50.936;4.654;2022-07-01T13:51:56;23.50;99.90
26336;DHT22;14047;50.936;4.654;2022-07-01T13:54:22;23.40;99.90
26336;DHT22;14047;50.936;4.654;2022-07-01T13:56:48;23.10;99.90
26336;DHT22;14047;50.936;4.654;2022-07-01T13:59:13;22.60;99.90
26336;DHT22;14047;50.936;4.654;2022-07-01T14:01:39;22.50;99.90
26336;DHT22;14047;50.936;4.654;2022-07-01T14:04:05;22.70;99.90
26336;DHT22;14047;50.936;4.654;2022-07-01T14:06:30;23.10;99.90
26336;DHT22;14047;50.936;4.654;2022-07-01T14:08:56;23.30;99.90
26336;DHT22;14047;50.936;4.654;2022-07-01T14:11:22;23.40;99.90
26336;DHT22;14047;50.936;4.654;2022-07-01T14:13:48;23.20;99.90
26336;DHT22;14047;50.936;4.654;2022-07-01T14:16:13;23.20;99.90
26336;DHT22;14047;50.936;4.654;2022-07-01T14:18:39;23.80;99.90
26336;DHT22;14047;50.936;4.654;2022-07-01T14:21:06;24.20;99.90
26336;DHT22;14047;50.936;4.654;2022-07-01T14:23:32;23.90;99.90
26336;DHT22;14047;50.936;4.654;2022-07-01T14:25:58;23.30;99.90
26336;DHT22;14047;50.936;4.654;2022-07-01T14:28:24;23.10;99.90
26336;DHT22;14047;50.936;4.654;2022-07-01T14:30:50;23.20;99.90
26336;DHT22;14047;50.936;4.654;2022-07-01T14:33:16;23.50;99.90
26336;DHT22;14047;50.936;4.654;2022-07-01T14:35:44;23.70;99.90
26336;DHT22;14047;50.936;4.654;2022-07-01T14:38:09;23.90;99.90
26336;DHT22;14047;50.936;4.654;2022-07-01T14:40:36;23.80;99.90
26336;DHT22;14047;50.936;4.654;2022-07-01T14:43:03;23.40;99.90
26336;DHT22;14047;50.936;4.654;2022-07-01T14:45:28;23.10;99.90
26336;DHT22;14047;50.936;4.654;2022-07-01T14:47:54;22.90;99.90
26336;DHT22;14047;50.936;4.654;2022-07-01T14:50:20;22.90;99.90
26336;DHT22;14047;50.936;4.654;2022-07-01T14:52:46;22.80;99.90
26336;DHT22;14047;50.936;4.654;2022-07-01T14:55:12;22.70;99.90
26336;DHT22;14047;50.936;4.654;2022-07-01T14:57:38;22.60;99.90
26336;DHT22;14047;50.936;4.654;2022-07-01T15:00:05;22.40;99.90
26336;DHT22;14047;50.936;4.654;2022-07-01T15:02:31;22.50;99.90
26336;DHT22;14047;50.936;4.654;2022-07-01T15:04:57;22.50;99.90
26336;DHT22;14047;50.936;4.654;2022-07-01T15:07:22;22.40;99.90
26336;DHT22;14047;50.936;4.654;2022-07-01T15:09:51;22.50;99.90
26336;DHT22;14047;50.936;4.654;2022-07-01T15:12:18;22.60;99.90
26336;DHT22;14047;50.936;4.654;2022-07-01T15:14:44;22.80;99.90
26336;DHT22;14047;50.936;4.654;2022-07-01T15:17:10;23.20;99.90
26336;DHT22;14047;50.936;4.654;2022-07-01T15:19:36;24.10;99.90
26336;DHT22;14047;50.936;4.654;2022-07-01T15:22:04;25.10;99.90
26336;DHT22;14047;50.936;4.654;2022-07-01T15:24:30;26.00;99.90
26336;DHT22;14047;50.936;4.654;2022-07-01T15:26:56;26.50;99.90
26336;DHT22;14047;50.936;4.654;2022-07-01T15:29:21;26.30;99.90
26336;DHT22;14047;50.936;4.654;2022-07-01T15:31:47;26.00;99.90
26336;DHT22;14047;50.936;4.654;2022-07-01T15:34:13;26.30;99.90
26336;DHT22;14047;50.936;4.654;2022-07-01T15:36:41;26.50;99.90
26336;DHT22;14047;50.936;4.654;2022-07-01T15:39:07;26.30;99.90
26336;DHT22;14047;50.936;4.654;2022-07-01T15:41:33;26.30;99.90
26336;DHT22;14047;50.936;4.654;2022-07-01T15:43:59;26.30;99.90
26336;DHT22;14047;50.936;4.654;2022-07-01T15:46:25;26.20;99.90
26336;DHT22;14047;50.936;4.654;2022-07-01T15:48:51;25.70;99.90
26336;DHT22;14047;50.936;4.654;2022-07-01T15:51:17;25.40;99.90
26336;DHT22;14047;50.936;4.654;2022-07-01T15:53:42;25.40;99.90